Time;durP1;ratioP1;P1;durP2;ratioP2;P2;SDS_P1;SDS_P2;PMS_P1;PMS_P2;Temp;Humidity;BMP_temperature;BMP_pressure;BME280_temperature;BME280_humidity;BME280_pressure;Samples;Min_cycle;Max_cycle;Signal;HPM_P1;HPM_P2
2022/11/14 00:01:58;;;;;;;30.03;20.57;;;;;;;3.69;100.00;96238.84;6091923;23;20045;-83
2022/11/14 00:04:53;;;;;;;34.70;20.83;;;;;;;3.79;100.00;96238.97;6091802;23;20025;-82
2022/11/14 00:07:37;;;;;;;39.50;22.92;;;;;;;3.77;100.00;96236.47;6092308;23;20025;-82
2022/11/14 00:10:20;;;;;;;;;;;;;;;3.62;100.00;96248.03;6091688;23;20072;-82
2022/11/14 00:13:06;;;;;;;37.78;25.30;;;;;;;3.63;100.00;96241.06;6112083;23;20352;-83
2022/11/14 00:15:55;;;;;;;36.70;23.53;;;;;;;3.68;100.00;96241.53;6092566;23;20029;-82
2022/11/14 00:18:39;;;;;;;37.73;24.10;;;;;;;3.72;100.00;96246.41;6091262;23;20057;-82
2022/11/14 00:21:23;;;;;;;37.03;22.97;;;;;;;3.70;100.00;96242.25;6071241;23;20113;-82
2022/11/14 00:24:07;;;;;;;;;;;;;;;3.74;100.00;96239.28;6042815;23;20103;-83
2022/11/14 00:26:51;;;;;;;28.63;17.73;;;;;;;3.75;100.00;96247.91;6063214;23;19988;-83
2022/11/14 00:29:42;;;;;;;;;;;;;;;3.65;100.00;96236.56;6064009;23;20026;-82
2022/11/14 00:32:26;;;;;;;31.57;21.23;;;;;;;3.66;100.00;96233.84;6042822;23;19917;-82
2022/11/14 00:35:10;;;;;;;35.97;22.60;;;;;;;3.65;100.00;96232.19;6041105;23;20034;-82
2022/11/14 00:37:55;;;;;;;35.03;22.03;;;;;;;3.63;100.00;96225.47;6042055;23;20049;-82
2022/11/14 00:40:40;;;;;;;37.17;22.97;;;;;;;3.60;100.00;96225.69;6063496;23;20037;-84
2022/11/14 00:43:28;;;;;;;30.10;20.70;;;;;;;3.60;100.00;96223.91;6042827;23;20083;-82
2022/11/14 00:46:12;;;;;;;30.20;20.63;;;;;;;3.62;100.00;96208.19;6063548;23;20033;-82
2022/11/14 00:48:57;;;;;;;33.87;21.93;;;;;;;3.54;100.00;96201.81;6041900;23;20083;-82
2022/11/14 00:51:41;;;;;;;33.47;22.27;;;;;;;3.47;100.00;96203.22;6042434;23;20089;-82
2022/11/14 00:54:27;;;;;;;34.80;21.93;;;;;;;3.46;100.00;96211.16;6041560;23;20030;-82
2022/11/14 00:57:12;;;;;;;32.33;21.37;;;;;;;3.35;100.00;96209.34;6042222;23;20029;-82
2022/11/14 01:00:04;;;;;;;32.97;20.60;;;;;;;3.28;100.00;96211.56;6042249;23;20077;-82
2022/11/14 01:02:48;;;;;;;35.73;20.90;;;;;;;3.26;100.00;96215.25;6043840;23;20049;-82
2022/11/14 01:05:32;;;;;;;30.73;20.77;;;;;;;3.24;100.00;96209.31;6044347;23;20094;-82
2022/11/14 01:08:18;;;;;;;33.83;20.70;;;;;;;3.18;100.00;96207.16;6041948;23;20030;-82
2022/11/14 01:11:12;;;;;;;34.33;21.67;;;;;;;3.02;100.00;96203.13;6042690;23;20086;-82
2022/11/14 01:13:57;;;;;;;33.23;21.20;;;;;;;2.98;100.00;96209.47;6044959;23;20068;-82
2022/11/14 01:16:41;;;;;;;33.67;21.13;;;;;;;2.98;100.00;96204.28;6065929;23;20034;-82
2022/11/14 01:19:27;;;;;;;33.20;20.40;;;;;;;3.01;100.00;96201.44;6044631;23;20022;-82
2022/11/14 01:22:11;;;;;;;34.03;21.70;;;;;;;2.90;100.00;96193.63;6044677;23;20359;-82
2022/11/14 01:24:57;;;;;;;29.80;19.33;;;;;;;2.91;100.00;96195.28;6051242;23;20017;-82
2022/11/14 01:27:44;;;;;;;34.53;21.10;;;;;;;2.89;100.00;96194.59;6046918;23;20025;-82
2022/11/14 01:30:28;;;;;;;32.17;20.30;;;;;;;2.83;100.00;96200.22;6044324;23;20029;-81
2022/11/14 01:33:13;;;;;;;32.60;20.57;;;;;;;2.78;100.00;96202.31;6066884;23;20764;-82
2022/11/14 01:36:01;;;;;;;34.33;21.03;;;;;;;2.77;100.00;96190.28;6043995;23;20526;-82
2022/11/14 01:38:45;;;;;;;29.90;19.53;;;;;;;2.71;100.00;96182.94;6043141;23;20455;-82
2022/11/14 01:41:30;;;;;;;29.60;19.57;;;;;;;2.72;100.00;96169.84;6044278;23;20430;-82
2022/11/14 01:44:43;;;;;;;31.83;19.57;;;;;;;2.70;100.00;96169.13;6044356;23;20374;-82
2022/11/14 01:47:32;;;;;;;27.43;17.37;;;;;;;2.63;100.00;96164.50;6044259;23;20443;-82
2022/11/14 01:50:16;;;;;;;27.43;18.07;;;;;;;2.59;100.00;96159.53;6065464;23;20025;-82
2022/11/14 01:53:01;;;;;;;31.77;19.37;;;;;;;2.51;100.00;96161.84;6043979;23;20054;-82
2022/11/14 01:55:46;;;;;;;28.50;18.63;;;;;;;2.49;100.00;96158.56;6042117;23;20042;-83
2022/11/14 01:58:34;;;;;;;31.30;19.60;;;;;;;2.48;100.00;96150.84;6043520;23;20383;-82
2022/11/14 02:01:18;;;;;;;31.00;18.57;;;;;;;2.41;100.00;96158.25;6043122;23;20082;-82
2022/11/14 02:04:05;;;;;;;29.27;18.30;;;;;;;2.45;100.00;96167.50;6044004;23;20034;-83
2022/11/14 02:06:54;;;;;;;30.57;18.77;;;;;;;2.35;100.00;96166.50;6043192;23;20114;-82
2022/11/14 02:09:42;;;;;;;30.93;19.33;;;;;;;2.35;100.00;96166.50;6043840;23;20435;-82
2022/11/14 02:12:26;;;;;;;33.90;19.53;;;;;;;2.37;100.00;96164.63;6065026;23;20763;-82
2022/11/14 02:15:10;;;;;;;30.83;18.37;;;;;;;2.40;100.00;96164.41;6043012;23;20466;-81
2022/11/14 02:17:55;;;;;;;31.67;18.73;;;;;;;2.44;100.00;96171.03;6043195;23;20386;-82
2022/11/14 02:20:42;;;;;;;28.63;16.77;;;;;;;2.44;100.00;96162.41;6057767;23;20450;-82
2022/11/14 02:23:29;;;;;;;33.20;18.67;;;;;;;2.40;100.00;96164.41;6092951;23;20445;-82
2022/11/14 02:26:19;;;;;;;27.97;18.17;;;;;;;2.43;100.00;96158.16;6091805;23;20413;-86
2022/11/14 02:29:06;;;;;;;31.20;18.03;;;;;;;2.41;100.00;96158.25;6091935;23;20397;-82
2022/11/14 02:31:51;;;;;;;30.23;17.30;;;;;;;2.37;100.00;96172.41;6091331;23;20450;-83
2022/11/14 02:34:35;;;;;;;31.50;17.47;;;;;;;2.36;100.00;96181.13;6092637;23;20908;-82
2022/11/14 02:37:20;;;;;;;25.27;16.30;;;;;;;2.43;100.00;96169.38;6092645;23;20772;-83
2022/11/14 02:40:09;;;;;;;;;;;;;;;2.40;100.00;96166.16;6092007;23;20355;-82
2022/11/14 02:42:53;;;;;;;29.33;17.63;;;;;;;2.49;100.00;96147.34;6093262;23;19951;-82
2022/11/14 02:45:39;;;;;;;27.23;17.93;;;;;;;2.41;100.00;96144.47;6091755;23;20377;-82
2022/11/14 02:48:24;;;;;;;27.37;15.57;;;;;;;2.43;100.00;96140.00;6092100;23;20085;-82
2022/11/14 02:51:08;;;;;;;27.87;16.97;;;;;;;2.41;100.00;96140.09;6092442;23;20057;-82
2022/11/14 02:53:59;;;;;;;23.57;14.67;;;;;;;2.38;100.00;96127.34;6091289;23;20413;-82
2022/11/14 02:56:43;;;;;;;24.97;14.73;;;;;;;2.36;100.00;96124.03;6091355;23;20118;-82
2022/11/14 02:59:27;;;;;;;21.37;13.47;;;;;;;2.28;100.00;96115.97;6091572;23;20417;-82
2022/11/14 03:02:13;;;;;;;21.43;13.70;;;;;;;2.33;100.00;96111.28;6093896;23;20382;-83
2022/11/14 03:04:57;;;;;;;20.83;12.80;;;;;;;2.30;100.00;96112.34;6094862;23;20029;-83
2022/11/14 03:07:40;;;;;;;;;;;;;;;2.25;100.00;96124.81;6094920;23;20092;-82
2022/11/14 03:10:25;;;;;;;20.25;12.82;;;;;;;2.18;100.00;96120.16;6094604;23;19996;-82
2022/11/14 03:13:09;;;;;;;18.27;12.67;;;;;;;2.11;100.00;96136.19;6095346;23;20030;-82
2022/11/14 03:15:53;;;;;;;19.13;12.27;;;;;;;2.16;100.00;96146.22;6094353;23;20470;-82
2022/11/14 03:18:37;;;;;;;20.10;12.97;;;;;;;2.13;100.00;96152.47;6094742;23;20426;-82
2022/11/14 03:21:22;;;;;;;19.97;13.73;;;;;;;2.20;100.00;96168.41;6075323;23;20455;-82
2022/11/14 03:24:07;;;;;;;22.67;14.13;;;;;;;2.20;100.00;96163.22;6046129;23;20403;-82
2022/11/14 03:26:51;;;;;;;24.87;14.57;;;;;;;2.28;100.00;96154.88;6045282;23;20378;-82
2022/11/14 03:29:36;;;;;;;28.80;16.43;;;;;;;2.42;100.00;96154.75;6066362;23;20029;-82
2022/11/14 03:32:20;;;;;;;28.90;18.23;;;;;;;2.40;100.00;96145.41;6046221;23;20423;-83
2022/11/14 03:35:05;;;;;;;30.80;18.43;;;;;;;2.40;100.00;96146.22;6045705;23;20383;-83
2022/11/14 03:37:49;;;;;;;28.73;17.47;;;;;;;2.41;100.00;96147.06;6067036;23;21009;-81
2022/11/14 03:40:33;;;;;;;;;;;;;;;2.40;100.00;96148.81;6045889;23;20969;-82
2022/11/14 03:43:20;;;;;;;22.38;12.82;;;;;;;2.40;100.00;96150.59;6066868;23;19960;-82
2022/11/14 03:46:04;;;;;;;27.40;16.77;;;;;;;2.46;100.00;96158.78;6044958;23;20158;-82
2022/11/14 03:48:49;;;;;;;29.87;18.37;;;;;;;2.45;100.00;96164.91;6039789;23;20057;-82
2022/11/14 03:51:43;;;;;;;29.33;16.90;;;;;;;2.42;100.00;96165.13;6045239;23;20417;-83
2022/11/14 03:54:27;;;;;;;30.13;18.03;;;;;;;2.46;100.00;96169.16;6045094;23;20700;-82
2022/11/14 03:57:12;;;;;;;26.17;16.93;;;;;;;2.47;100.00;96181.19;6045144;23;20030;-82
2022/11/14 03:59:56;;;;;;;;;;;;;;;2.48;100.00;96185.47;6067818;23;20431;-82
2022/11/14 04:02:40;;;;;;;26.40;16.85;;;;;;;2.53;100.00;96185.13;6043734;23;19920;-82
2022/11/14 04:05:24;;;;;;;27.27;17.47;;;;;;;2.57;100.00;96181.34;6042579;23;20098;-82
2022/11/14 04:08:08;;;;;;;32.20;17.97;;;;;;;2.66;100.00;96174.66;6043008;23;20162;-82
2022/11/14 04:10:52;;;;;;;29.70;18.43;;;;;;;2.71;100.00;96177.75;6041845;23;20089;-82
2022/11/14 04:13:36;;;;;;;35.47;20.90;;;;;;;2.75;100.00;96166.19;6064302;23;20403;-82
2022/11/14 04:16:20;;;;;;;;;;;;;;;2.75;100.00;96158.38;6043170;23;20030;-82
2022/11/14 04:19:05;;;;;;;28.17;18.23;;;;;;;2.75;100.00;96150.59;6042126;23;19917;-82
2022/11/14 04:21:49;;;;;;;32.97;20.23;;;;;;;2.77;100.00;96144.34;6084491;23;20029;-82
2022/11/14 04:24:34;;;;;;;31.20;18.53;;;;;;;2.78;100.00;96140.00;6091143;23;20028;-82
2022/11/14 04:27:18;;;;;;;31.83;19.60;;;;;;;2.72;100.00;96135.28;6091719;23;20050;-82
2022/11/14 04:30:04;;;;;;;32.40;18.87;;;;;;;2.65;100.00;96131.44;6088603;23;20719;-82
2022/11/14 04:32:48;;;;;;;32.10;18.90;;;;;;;2.65;100.00;96124.50;6090681;23;20033;-82
2022/11/14 04:35:33;;;;;;;30.07;18.07;;;;;;;2.55;100.00;96121.75;6091750;23;20057;-82
2022/11/14 04:38:17;;;;;;;34.50;19.90;;;;;;;2.73;100.00;96111.78;6094019;23;20470;-81
2022/11/14 04:41:04;;;;;;;30.33;18.70;;;;;;;2.77;100.00;96122.75;6093182;23;20025;-82
2022/11/14 04:43:48;;;;;;;35.57;20.20;;;;;;;2.76;100.00;96128.91;6093426;23;20062;-83
2022/11/14 04:46:35;;;;;;;39.97;21.47;;;;;;;2.69;100.00;96123.34;6092489;23;20048;-82
2022/11/14 04:49:20;;;;;;;38.13;21.77;;;;;;;2.74;100.00;96112.59;6092513;23;20137;-82
2022/11/14 04:52:04;;;;;;;35.13;20.93;;;;;;;2.75;100.00;96115.09;6093236;23;20741;-82
2022/11/14 04:54:49;;;;;;;33.40;20.13;;;;;;;2.72;100.00;96109.31;6093976;23;20025;-82
2022/11/14 04:57:33;;;;;;;32.97;21.20;;;;;;;2.69;100.00;96109.53;6093090;23;20025;-82
2022/11/14 05:00:18;;;;;;;32.83;19.33;;;;;;;2.73;100.00;96113.56;6093330;23;20037;-82
2022/11/14 05:03:02;;;;;;;33.23;20.70;;;;;;;2.76;100.00;96124.53;6092968;23;20534;-82
2022/11/14 05:05:46;;;;;;;31.90;19.70;;;;;;;2.75;100.00;96122.03;6091958;23;20374;-82
2022/11/14 05:08:32;;;;;;;36.77;20.93;;;;;;;2.80;100.00;96117.34;6092546;23;20397;-81
2022/11/14 05:11:19;;;;;;;30.93;19.83;;;;;;;2.85;100.00;96104.84;6093330;23;20407;-82
2022/11/14 05:14:03;;;;;;;52.77;31.07;;;;;;;2.84;100.00;96111.78;6091685;23;20100;-81
2022/11/14 05:16:48;;;;;;;32.17;20.13;;;;;;;2.89;100.00;96113.25;6092933;23;21067;-82
2022/11/14 05:19:32;;;;;;;33.23;19.97;;;;;;;2.90;100.00;96112.28;6094506;23;20029;-81
2022/11/14 05:22:18;;;;;;;30.43;19.17;;;;;;;2.85;100.00;96102.25;6092540;23;20478;-81
2022/11/14 05:25:03;;;;;;;29.47;18.60;;;;;;;2.86;100.00;96093.53;6094132;23;20102;-81
2022/11/14 05:27:48;;;;;;;33.07;19.60;;;;;;;2.86;100.00;96093.53;6087312;23;20486;-81
2022/11/14 05:30:38;;;;;;;29.80;18.60;;;;;;;2.93;100.00;96099.91;6086032;23;20029;-81
2022/11/14 05:33:27;;;;;;;28.40;18.73;;;;;;;2.96;100.00;96091.06;6064666;23;20029;-81
2022/11/14 05:36:15;;;;;;;30.30;18.80;;;;;;;3.00;100.00;96100.28;6067115;23;20093;-82
2022/11/14 05:38:59;;;;;;;27.23;17.47;;;;;;;2.98;100.00;96108.16;6067631;23;20156;-83
2022/11/14 05:41:43;;;;;;;28.20;18.57;;;;;;;2.99;100.00;96112.44;6066132;23;20073;-83
2022/11/14 05:44:28;;;;;;;27.97;16.97;;;;;;;3.01;100.00;96104.50;6065079;23;20507;-83
2022/11/14 05:47:16;;;;;;;26.33;16.60;;;;;;;3.09;100.00;96115.16;6062635;23;20026;-83
2022/11/14 05:50:04;;;;;;;25.00;16.03;;;;;;;3.11;100.00;96121.06;6064244;23;20033;-83
2022/11/14 05:52:49;;;;;;;25.50;16.20;;;;;;;3.12;100.00;96119.28;6074824;23;20033;-84
2022/11/14 05:55:33;;;;;;;25.70;16.20;;;;;;;3.21;100.00;96121.19;6063292;23;20082;-84
2022/11/14 05:58:23;;;;;;;26.07;16.77;;;;;;;3.19;100.00;96130.88;6064161;23;20367;-81
2022/11/14 06:01:18;;;;;;;27.93;17.57;;;;;;;3.24;100.00;96126.16;6064447;23;20085;-85
2022/11/14 06:04:05;;;;;;;27.33;17.47;;;;;;;3.28;100.00;96117.19;6041138;23;20045;-82
2022/11/14 06:06:52;;;;;;;24.57;16.60;;;;;;;3.27;100.00;96118.13;6013109;23;20101;-81
2022/11/14 06:09:40;;;;;;;26.50;16.30;;;;;;;3.23;100.00;96117.53;6014487;23;20033;-81
2022/11/14 06:12:25;;;;;;;25.10;15.87;;;;;;;3.23;100.00;96117.53;6013705;23;20077;-81
2022/11/14 06:15:09;;;;;;;26.70;16.53;;;;;;;3.25;100.00;96112.22;6051110;23;20047;-82
2022/11/14 06:17:56;;;;;;;28.17;17.77;;;;;;;3.22;100.00;96107.25;6050919;23;20081;-82
2022/11/14 06:20:41;;;;;;;26.87;17.27;;;;;;;3.18;100.00;96119.66;6029403;23;20333;-82
2022/11/14 06:23:30;;;;;;;27.17;17.50;;;;;;;3.24;100.00;96123.56;6010319;23;20033;-81
2022/11/14 06:26:19;;;;;;;23.87;15.43;;;;;;;3.30;100.00;96123.09;6013351;23;20030;-81
2022/11/14 06:29:03;;;;;;;25.33;16.47;;;;;;;3.35;100.00;96117.53;6013609;23;20031;-81
2022/11/14 06:31:48;;;;;;;24.57;16.80;;;;;;;3.36;100.00;96117.44;6035056;23;20034;-80
2022/11/14 06:34:32;;;;;;;24.73;17.33;;;;;;;3.41;100.00;96114.47;6034982;23;20082;-81
2022/11/14 06:37:16;;;;;;;23.90;15.27;;;;;;;3.41;100.00;96107.50;6032278;23;20134;-80
2022/11/14 06:40:01;;;;;;;27.63;16.73;;;;;;;3.45;100.00;96105.47;6012673;23;20022;-81
2022/11/14 06:42:49;;;;;;;;;;;;;;;3.44;100.00;96109.03;6034668;23;20030;-80
2022/11/14 06:45:33;;;;;;;23.53;15.73;;;;;;;3.49;100.00;96117.31;6033082;23;19917;-81
2022/11/14 06:48:18;;;;;;;26.87;16.63;;;;;;;3.51;100.00;96110.22;6012243;23;20030;-81
2022/11/14 06:51:05;;;;;;;22.17;14.40;;;;;;;3.43;100.00;96116.00;6013935;23;20124;-81
2022/11/14 06:53:50;;;;;;;25.40;15.93;;;;;;;3.47;100.00;96124.41;6035393;23;20359;-85
2022/11/14 06:56:35;;;;;;;25.53;16.53;;;;;;;3.49;100.00;96131.16;6012899;23;20038;-82
2022/11/14 06:59:20;;;;;;;25.20;16.20;;;;;;;3.52;100.00;96125.72;6010960;23;20114;-80
2022/11/14 07:02:05;;;;;;;25.03;15.77;;;;;;;3.59;100.00;96123.47;6006777;23;20026;-85
2022/11/14 07:04:57;;;;;;;25.97;17.23;;;;;;;3.66;100.00;96129.00;6015550;23;20038;-87
2022/11/14 07:07:41;;;;;;;28.50;16.30;;;;;;;3.79;100.00;96137.53;6014894;23;20108;-82
2022/11/14 07:10:25;;;;;;;23.20;15.00;;;;;;;3.77;100.00;96149.81;6003553;23;20424;-82
2022/11/14 07:13:10;;;;;;;25.77;14.77;;;;;;;3.92;100.00;96164.22;5987443;23;20086;-83
2022/11/14 07:16:08;;;;;;;23.07;14.73;;;;;;;3.87;100.00;96165.53;5980560;23;20042;-82
2022/11/14 07:18:53;;;;;;;24.83;15.43;;;;;;;3.94;100.00;96161.50;5973463;23;20046;-83
2022/11/14 07:21:40;;;;;;;21.30;15.03;;;;;;;4.06;100.00;96168.34;6010589;23;20037;-82
2022/11/14 07:24:24;;;;;;;22.73;14.80;;;;;;;4.25;100.00;96162.50;6020570;23;20033;-82
2022/11/14 07:27:11;;;;;;;23.30;14.60;;;;;;;4.40;100.00;96166.50;6018977;23;20085;-86
2022/11/14 07:29:55;;;;;;;21.70;13.07;;;;;;;4.57;100.00;96166.91;6043671;23;20029;-83
2022/11/14 07:32:40;;;;;;;18.80;13.13;;;;;;;5.03;100.00;96168.34;6035243;23;20029;-83
2022/11/14 07:35:24;;;;;;;18.47;12.63;;;;;;;5.21;100.00;96174.66;6029963;23;20078;-83
2022/11/14 07:38:11;;;;;;;16.77;11.70;;;;;;;5.49;100.00;96180.16;6032680;23;20111;-83
2022/11/14 07:41:07;;;;;;;17.67;11.30;;;;;;;5.58;100.00;96164.56;6062865;23;20494;-83
2022/11/14 07:43:51;;;;;;;17.33;11.83;;;;;;;5.74;100.00;96168.50;6064667;23;20490;-83
2022/11/14 07:46:43;;;;;;;17.77;11.33;;;;;;;6.18;100.00;96156.03;6062831;23;20030;-83
2022/11/14 07:49:27;;;;;;;17.30;12.10;;;;;;;6.23;100.00;96156.44;6059413;23;20454;-83
2022/11/14 07:52:12;;;;;;;14.93;10.67;;;;;;;6.55;100.00;96151.00;6061021;23;20026;-83
2022/11/14 07:54:56;;;;;;;18.07;10.70;;;;;;;6.82;100.00;96140.69;6059705;23;20474;-83
2022/11/14 07:57:43;;;;;;;18.17;12.10;;;;;;;7.18;100.00;96145.34;6062551;23;20053;-83
2022/11/14 08:00:28;;;;;;;19.17;11.47;;;;;;;7.23;100.00;96151.78;6063762;23;20082;-83
2022/11/14 08:03:12;;;;;;;14.63;10.03;;;;;;;7.62;100.00;96156.13;5981284;23;20081;-87
2022/11/14 08:06:05;;;;;;;18.50;12.23;;;;;;;6.97;100.00;96164.59;5978069;23;20082;-83
2022/11/14 08:08:50;;;;;;;16.25;12.32;;;;;;;7.81;100.00;96153.41;5973990;23;20030;-85
2022/11/14 08:11:46;;;;;;;17.10;11.67;;;;;;;7.83;100.00;96141.00;6017953;23;20033;-83
2022/11/14 08:14:34;;;;;;;20.33;12.50;;;;;;;8.27;100.00;96139.38;6063023;23;20047;-85
2022/11/14 08:17:29;;;;;;;17.23;11.57;;;;;;;7.07;100.00;96148.91;6051855;23;20058;-81
2022/11/14 08:20:16;;;;;;;16.40;10.70;;;;;;;7.61;100.00;96150.03;6033523;23;20022;-82
2022/11/14 08:23:05;;;;;;;19.10;12.93;;;;;;;7.93;100.00;96151.44;6036967;23;20089;-81
2022/11/14 08:25:50;;;;;;;17.27;12.53;;;;;;;8.67;100.00;96134.75;6048104;23;20098;-87
2022/11/14 08:28:41;;;;;;;16.90;12.07;;;;;;;8.56;100.00;96137.59;6047870;23;20029;-81
2022/11/14 08:34:24;;;;;;;19.30;12.23;;;;;;;9.27;100.00;96132.28;6077556;23;20086;-82
2022/11/14 08:37:09;;;;;;;15.97;11.87;;;;;;;9.67;100.00;96128.28;6074135;23;20059;-81
2022/11/14 08:39:53;;;;;;;14.63;9.70;;;;;;;10.84;100.00;96106.47;6092616;23;20021;-82
2022/11/14 08:42:37;;;;;;;15.03;9.63;;;;;;;11.17;100.00;96099.38;6092223;23;20033;-82
2022/11/14 08:45:23;;;;;;;14.83;9.57;;;;;;;11.87;100.00;96095.28;6070989;23;20041;-82
2022/11/14 08:48:07;;;;;;;13.37;9.80;;;;;;;11.05;100.00;96092.81;6071198;23;20069;-82
2022/11/14 09:01:56;;;;;;;16.20;11.13;;;;;;;8.97;100.00;96151.91;5023170;28;20718;-81
2022/11/14 09:04:41;;;;;;;15.40;11.50;;;;;;;9.04;100.00;96141.63;5122023;28;20038;-80
2022/11/14 09:07:33;;;;;;;14.27;9.87;;;;;;;8.81;100.00;96142.09;5122371;28;20041;-81
2022/11/14 09:10:18;;;;;;;15.87;11.63;;;;;;;8.70;100.00;96145.75;5125267;28;20058;-83
2022/11/14 09:13:03;;;;;;;16.77;10.83;;;;;;;8.50;100.00;96154.75;5124464;28;20047;-85
2022/11/14 09:15:59;;;;;;;15.77;11.97;;;;;;;8.51;100.00;96156.38;5152784;27;20437;-84
2022/11/14 09:18:43;;;;;;;19.03;11.20;;;;;;;8.67;100.00;96153.09;5124125;28;20126;-87
2022/11/14 09:21:29;;;;;;;16.97;11.30;;;;;;;8.82;100.00;96156.00;5126781;27;20035;-87
2022/11/14 09:24:15;;;;;;;17.20;11.80;;;;;;;9.08;100.00;96154.28;5122606;27;20038;-85
2022/11/14 09:27:02;;;;;;;17.17;10.70;;;;;;;8.98;100.00;96153.53;5125541;27;20049;-84
2022/11/14 09:29:49;;;;;;;16.17;10.27;;;;;;;9.00;100.00;96156.84;5129840;27;20064;-86
2022/11/14 09:32:34;;;;;;;12.70;8.53;;;;;;;9.45;100.00;96147.97;5125650;27;20104;-85
2022/11/14 09:35:25;;;;;;;17.40;10.93;;;;;;;9.78;100.00;96140.31;5126504;27;20034;-85
2022/11/14 09:38:10;;;;;;;14.50;10.40;;;;;;;9.37;100.00;96146.13;5126638;27;20045;-88
2022/11/14 09:41:17;;;;;;;14.50;9.90;;;;;;;10.04;100.00;96142.88;5125687;28;20074;-87
2022/11/14 09:47:54;;;;;;;14.47;9.33;;;;;;;11.40;100.00;96125.84;5121406;28;20536;-85
2022/11/14 09:51:06;;;;;;;14.67;10.10;;;;;;;12.05;100.00;96121.44;5123587;28;20118;-85
2022/11/14 09:54:20;;;;;;;13.97;9.00;;;;;;;11.48;100.00;96125.81;5124364;28;20042;-84
2022/11/14 09:57:19;;;;;;;15.10;9.03;;;;;;;12.02;100.00;96133.13;5112803;28;20050;-84
2022/11/14 10:07:52;;;;;;;12.20;8.57;;;;;;;12.50;100.00;96121.50;5109269;28;20064;-84
2022/11/14 10:11:21;;;;;;;11.67;7.80;;;;;;;11.91;100.00;96128.22;5109363;28;20138;-85
2022/11/14 10:14:43;;;;;;;13.07;7.83;;;;;;;12.25;100.00;96118.19;5097109;28;20096;-84
2022/11/14 10:18:32;;;;;;;9.83;6.53;;;;;;;12.70;100.00;96108.69;5107565;28;20097;-85
2022/11/14 10:29:37;;;;;;;9.93;5.80;;;;;;;12.75;100.00;96118.72;5110649;28;20073;-85
2022/11/14 10:32:55;;;;;;;10.73;6.43;;;;;;;13.35;100.00;96115.31;5089117;28;20045;-85
2022/11/14 10:36:15;;;;;;;10.03;5.67;;;;;;;12.09;100.00;96120.91;5110335;28;20054;-85
2022/11/14 10:43:45;;;;;;;11.53;6.93;;;;;;;11.15;100.00;96140.81;5044113;28;20442;-85
2022/11/14 10:46:39;;;;;;;11.90;7.37;;;;;;;10.88;100.00;96144.59;5035735;28;20075;-86
2022/11/14 10:49:25;;;;;;;11.23;7.60;;;;;;;10.77;100.00;96148.38;5044696;28;20566;-86
2022/11/14 10:52:21;;;;;;;11.50;7.30;;;;;;;11.57;100.00;96139.81;5105074;28;20092;-85
2022/11/14 10:55:18;;;;;;;12.73;8.17;;;;;;;12.02;100.00;96135.75;5099836;28;20074;-84
2022/11/14 10:58:09;;;;;;;11.50;6.83;;;;;;;12.15;100.00;96138.66;5098004;28;20855;-85
2022/11/14 11:01:41;;;;;;;12.50;7.73;;;;;;;12.45;100.00;96129.13;5141006;27;20049;-93
2022/11/14 11:04:29;;;;;;;12.97;7.40;;;;;;;11.76;100.00;96138.59;5085632;28;20123;-88
2022/11/14 11:11:31;;;;;;;10.80;7.20;;;;;;;11.81;100.00;96146.84;5112086;28;20051;-85
2022/11/14 11:14:21;;;;;;;10.53;6.40;;;;;;;11.80;100.00;96139.91;5104922;28;20064;-86
2022/11/14 11:17:52;;;;;;;11.00;6.47;;;;;;;11.62;100.00;96148.03;5107962;27;20555;-88
2022/11/14 11:25:05;;;;;;;12.57;8.70;;;;;;;11.40;100.00;96149.56;5111023;28;20809;-90
2022/11/14 11:32:35;;;;;;;12.20;7.07;;;;;;;10.81;100.00;96127.84;5115181;28;20031;-90
2022/11/14 11:36:26;;;;;;;9.77;6.73;;;;;;;10.86;100.00;96128.16;5072991;28;20047;-91
2022/11/14 11:39:32;;;;;;;;;;;;;;;10.71;100.00;96132.44;5051704;28;20056;-88
2022/11/14 11:46:38;;;;;;;11.43;6.00;;;;;;;10.84;100.00;96136.22;5083474;28;20112;-92
2022/11/14 11:58:31;;;;;;;11.97;6.90;;;;;;;11.01;100.00;96134.41;5073333;28;20119;-94
2022/11/14 12:40:41;;;;;;;9.80;6.03;;;;;;;10.40;100.00;96156.69;5065683;28;20513;-85
2022/11/14 13:08:47;;;;;;;4.95;2.50;;;;;;;10.36;100.00;96121.16;5122026;28;20084;-95
2022/11/14 13:41:44;;;;;;;2.90;1.60;;;;;;;10.82;100.00;96093.47;4961987;28;20062;-94
2022/11/14 14:46:24;;;;;;;3.53;1.40;;;;;;;11.37;100.00;96080.56;4959133;29;20512;-90
2022/11/14 15:01:24;;;;;;;4.77;1.40;;;;;;;11.27;100.00;96070.25;4868162;29;20109;-87
2022/11/14 15:04:55;;;;;;;2.77;1.20;;;;;;;11.23;100.00;96061.88;4878549;29;20819;-87
2022/11/14 15:08:28;;;;;;;3.60;1.60;;;;;;;11.24;100.00;96060.06;4965089;28;20057;-86
2022/11/14 15:11:16;;;;;;;7.00;2.13;;;;;;;11.24;100.00;96067.97;4993457;28;20126;-86
2022/11/14 15:14:34;;;;;;;7.60;2.40;;;;;;;11.25;100.00;96053.78;4989214;28;20129;-86
2022/11/14 15:17:21;;;;;;;8.90;3.67;;;;;;;11.31;100.00;96053.13;4980720;28;20046;-85
2022/11/14 15:32:28;;;;;;;3.25;1.10;;;;;;;10.97;100.00;96064.69;4974591;28;20041;-86
2022/11/14 15:35:47;;;;;;;6.13;1.40;;;;;;;11.06;100.00;96049.72;4944724;28;20126;-86
2022/11/14 15:38:38;;;;;;;3.10;1.20;;;;;;;10.99;100.00;96060.06;4963257;28;20073;-86
2022/11/14 15:42:06;;;;;;;4.00;1.47;;;;;;;11.04;100.00;96062.22;4946627;28;20412;-86
2022/11/14 15:48:51;;;;;;;4.93;1.77;;;;;;;10.78;100.00;96084.25;4958006;28;20089;-89
2022/11/14 15:51:55;;;;;;;6.57;2.20;;;;;;;10.77;100.00;96084.44;4940608;28;20101;-88
2022/11/14 16:02:59;;;;;;;5.33;2.10;;;;;;;10.69;100.00;96092.31;4944495;28;20038;-87
2022/11/14 16:06:00;;;;;;;6.07;2.50;;;;;;;10.64;100.00;96092.81;4915615;28;20049;-88
2022/11/14 16:08:44;;;;;;;4.67;2.03;;;;;;;10.56;100.00;96093.63;4901754;28;20080;-88
2022/11/14 16:16:05;;;;;;;5.07;2.40;;;;;;;10.44;100.00;96094.91;4923006;28;20049;-88
2022/11/14 16:19:20;;;;;;;5.73;1.70;;;;;;;10.47;100.00;96093.78;4849822;29;20082;-87
2022/11/14 16:26:50;;;;;;;4.37;2.00;;;;;;;10.28;100.00;96090.44;4843800;29;20139;-90
2022/11/14 16:30:27;;;;;;;4.87;2.40;;;;;;;10.29;100.00;96091.25;4877373;28;20193;-88
2022/11/14 16:33:33;;;;;;;6.65;3.33;;;;;;;10.19;100.00;96091.34;4957956;28;21334;-88
2022/11/14 16:36:23;;;;;;;8.03;3.00;;;;;;;10.12;100.00;96093.81;4962467;28;20096;-89
2022/11/14 16:39:14;;;;;;;3.67;1.75;;;;;;;10.06;100.00;96091.84;4970470;28;20114;-89
2022/11/14 16:42:01;;;;;;;7.57;2.50;;;;;;;10.04;100.00;96098.22;4971518;28;20129;-89
2022/11/14 16:44:50;;;;;;;7.73;2.77;;;;;;;9.97;100.00;96095.41;4970487;28;20057;-88
2022/11/14 16:47:35;;;;;;;4.77;2.10;;;;;;;10.01;100.00;96107.25;4956643;28;20037;-88
2022/11/14 16:50:20;;;;;;;4.63;2.17;;;;;;;10.01;100.00;96101.97;4956692;28;20053;-89
2022/11/14 16:53:05;;;;;;;6.57;3.13;;;;;;;10.01;100.00;96099.34;4958473;28;20198;-88
2022/11/14 16:55:50;;;;;;;8.03;4.27;;;;;;;10.01;100.00;96098.53;4952859;28;20391;-88
2022/11/14 16:58:38;;;;;;;5.97;4.13;;;;;;;9.98;100.00;96106.75;4934849;28;20056;-88
2022/11/14 17:01:25;;;;;;;4.30;2.63;;;;;;;9.91;100.00;96101.28;4922999;28;21010;-89
2022/11/14 17:04:11;;;;;;;3.57;2.03;;;;;;;9.87;100.00;96107.84;4916658;28;20109;-87
2022/11/14 17:06:58;;;;;;;4.83;2.40;;;;;;;9.83;100.00;96103.91;4922602;28;22115;-87
2022/11/14 17:09:43;;;;;;;5.20;3.17;;;;;;;9.77;100.00;96104.53;4927729;28;20767;-86
2022/11/14 17:12:30;;;;;;;3.87;1.87;;;;;;;9.70;100.00;96103.50;4942693;28;20054;-89
2022/11/14 17:15:15;;;;;;;5.67;2.20;;;;;;;9.71;100.00;96113.03;4924879;28;20054;-86
2022/11/14 17:18:09;;;;;;;4.37;2.17;;;;;;;9.65;100.00;96115.28;4970008;28;20563;-89
2022/11/14 17:20:55;;;;;;;5.27;2.30;;;;;;;9.64;100.00;96116.28;4940319;28;20046;-89
2022/11/14 17:23:40;;;;;;;6.43;2.60;;;;;;;9.65;100.00;96119.72;4932198;28;20049;-89
2022/11/14 17:26:27;;;;;;;4.53;2.30;;;;;;;9.67;100.00;96121.22;4940816;28;20080;-89
2022/11/14 17:29:11;;;;;;;4.53;1.77;;;;;;;9.64;100.00;96121.53;4962260;28;20185;-89
2022/11/14 17:32:00;;;;;;;3.43;1.87;;;;;;;9.62;100.00;96120.88;4988396;28;20611;-89